createdAt,value
2023-10-26T00:01:19.938Z,94349.34
2023-10-26T00:03:47.965Z,94344.94
2023-10-26T00:06:16.163Z,94343.16
2023-10-26T00:08:44.175Z,94345.38
2023-10-26T00:11:12.214Z,94344.88
2023-10-26T00:13:40.182Z,94336.56
2023-10-26T00:16:08.597Z,94333.72
2023-10-26T00:18:37.971Z,94340.72
2023-10-26T00:21:06.190Z,94345.72
2023-10-26T00:23:34.137Z,94344.47
2023-10-26T00:26:02.083Z,94335.72
2023-10-26T00:28:30.036Z,94341.81
2023-10-26T00:30:58.048Z,94333.63
2023-10-26T00:33:25.997Z,94338.59
2023-10-26T00:35:55.452Z,94330.31
2023-10-26T00:38:23.418Z,94335.50
2023-10-26T00:40:51.361Z,94329.72
2023-10-26T00:43:23.837Z,94338.66
2023-10-26T00:45:53.849Z,94336.25
2023-10-26T00:48:22.798Z,94330.59
2023-10-26T00:50:51.618Z,94333.09
2023-10-26T00:53:22.486Z,94339.81
2023-10-26T00:55:53.509Z,94341.25
2023-10-26T00:58:26.900Z,94342.91
2023-10-26T01:00:55.597Z,94343.13
2023-10-26T01:03:27.046Z,94341.38
2023-10-26T01:05:55.062Z,94345.25
2023-10-26T01:08:24.889Z,94345.72
2023-10-26T01:10:57.994Z,94345.06
2023-10-26T01:13:26.729Z,94332.19
2023-10-26T01:15:54.736Z,94344.69
2023-10-26T01:18:22.750Z,94334.94
2023-10-26T01:20:50.720Z,94331.16
2023-10-26T01:23:20.031Z,94333.50
2023-10-26T01:25:54.331Z,94328.06
2023-10-26T01:28:23.071Z,94332.19
2023-10-26T01:30:51.093Z,94327.66
2023-10-26T01:33:19.050Z,94325.69
2023-10-26T01:35:47.582Z,94324.78
2023-10-26T01:38:16.324Z,94332.41
2023-10-26T01:40:45.624Z,94322.97
2023-10-26T01:43:13.590Z,94328.22
2023-10-26T01:45:41.486Z,94319.22
2023-10-26T01:48:09.483Z,94317.13
2023-10-26T01:50:38.938Z,94309.28
2023-10-26T01:53:07.547Z,94302.63
2023-10-26T01:55:35.502Z,94297.66
2023-10-26T01:58:04.776Z,94307.28
2023-10-26T02:00:32.710Z,94307.84
2023-10-26T02:03:00.733Z,94309.72
2023-10-26T02:05:29.178Z,94318.78
2023-10-26T02:07:57.375Z,94323.44
2023-10-26T02:10:30.371Z,94321.69
2023-10-26T02:12:58.426Z,94322.34
2023-10-26T02:15:28.078Z,94318.50
2023-10-26T02:17:56.072Z,94316.00
2023-10-26T02:20:24.065Z,94321.47
2023-10-26T02:22:52.016Z,94322.72
2023-10-26T02:25:21.380Z,94322.97
2023-10-26T02:27:49.339Z,94326.53
2023-10-26T02:30:17.313Z,94332.84
2023-10-26T02:32:46.760Z,94328.47
2023-10-26T02:35:14.782Z,94325.63
2023-10-26T02:37:42.873Z,94325.63
2023-10-26T02:40:11.946Z,94331.53
2023-10-26T02:42:40.412Z,94325.88
2023-10-26T02:45:10.162Z,94331.28
2023-10-26T02:47:39.013Z,94332.53
2023-10-26T02:50:10.326Z,94322.53
2023-10-26T02:52:39.135Z,94329.81
2023-10-26T02:55:08.622Z,94317.38
2023-10-26T02:57:36.614Z,94326.28
2023-10-26T03:00:06.309Z,94319.41
2023-10-26T03:02:34.343Z,94320.22
2023-10-26T03:05:03.515Z,94318.56
2023-10-26T03:07:33.085Z,94310.91
2023-10-26T03:10:01.246Z,94325.59
2023-10-26T03:12:29.353Z,94317.56
2023-10-26T03:14:57.318Z,94328.19
2023-10-26T03:17:25.238Z,94323.63
2023-10-26T03:19:53.329Z,94326.81
2023-10-26T03:22:21.261Z,94328.63
2023-10-26T03:24:52.522Z,94329.00
2023-10-26T03:27:20.712Z,94325.97
2023-10-26T03:29:48.696Z,94326.50
2023-10-26T03:32:16.668Z,94330.66
2023-10-26T03:34:45.042Z,94329.78
2023-10-26T03:37:13.197Z,94331.47
2023-10-26T03:39:41.301Z,94321.00
2023-10-26T03:42:11.010Z,94333.91
2023-10-26T03:44:38.907Z,94336.53
2023-10-26T03:47:07.187Z,94333.59
2023-10-26T03:49:35.500Z,94319.81
2023-10-26T03:52:03.737Z,94328.50
2023-10-26T03:54:31.749Z,94323.38
2023-10-26T03:56:59.780Z,94323.72
2023-10-26T03:59:29.044Z,94317.16
2023-10-26T04:01:56.965Z,94321.28
2023-10-26T04:04:24.968Z,94326.63
2023-10-26T04:06:52.930Z,94326.09
2023-10-26T04:09:20.917Z,94314.69
2023-10-26T04:11:49.083Z,94320.03
2023-10-26T04:14:18.142Z,94321.97
2023-10-26T04:16:49.044Z,94320.22
2023-10-26T04:19:17.088Z,94312.56
2023-10-26T04:21:45.077Z,94311.38
2023-10-26T04:24:13.066Z,94317.13
2023-10-26T04:26:41.155Z,94312.94
2023-10-26T04:29:09.174Z,94309.06
2023-10-26T04:31:37.349Z,94305.03
2023-10-26T04:34:06.828Z,94306.78
2023-10-26T04:36:34.837Z,94310.97
2023-10-26T04:39:02.922Z,94313.28
2023-10-26T04:41:30.841Z,94310.91
2023-10-26T04:43:58.770Z,94309.06
2023-10-26T04:46:27.136Z,94303.38
2023-10-26T04:48:55.141Z,94297.69
2023-10-26T04:51:24.503Z,94302.56
2023-10-26T04:53:53.816Z,94306.47
2023-10-26T04:56:21.908Z,94295.06
2023-10-26T04:58:49.916Z,94298.09
2023-10-26T05:01:17.869Z,94304.09
2023-10-26T05:03:45.888Z,94302.53
2023-10-26T05:06:16.024Z,94299.63
2023-10-26T05:08:45.400Z,94306.72
2023-10-26T05:11:13.333Z,94299.88
2023-10-26T05:13:41.280Z,94295.53
2023-10-26T05:16:09.224Z,94293.78
2023-10-26T05:18:37.175Z,94295.56
2023-10-26T05:21:05.260Z,94296.03
2023-10-26T05:23:33.374Z,94287.69
2023-10-26T05:26:02.754Z,94292.25
2023-10-26T05:28:31.638Z,94288.66
2023-10-26T05:30:59.567Z,94294.59
2023-10-26T05:33:27.469Z,94284.91
2023-10-26T05:35:55.678Z,94292.28
2023-10-26T05:38:24.669Z,94292.38
2023-10-26T05:40:54.561Z,94294.31
2023-10-26T05:43:24.010Z,94293.00
2023-10-26T05:45:52.537Z,94292.56
2023-10-26T05:48:20.963Z,94302.97
2023-10-26T05:50:48.973Z,94306.50
2023-10-26T05:53:16.907Z,94308.22
2023-10-26T05:55:44.831Z,94316.91
2023-10-26T05:58:12.725Z,94304.22
2023-10-26T06:00:42.108Z,94300.50
2023-10-26T06:03:10.217Z,94315.28
2023-10-26T06:05:38.228Z,94317.94
2023-10-26T06:08:06.717Z,94313.59
2023-10-26T06:10:34.659Z,94318.59
2023-10-26T06:13:03.928Z,94310.34
2023-10-26T06:15:31.919Z,94314.78
2023-10-26T06:18:01.397Z,94311.34
2023-10-26T06:20:29.910Z,94314.69
2023-10-26T06:22:58.046Z,94323.63
2023-10-26T06:25:26.744Z,94323.75
2023-10-26T06:27:54.902Z,94319.06
2023-10-26T06:30:23.066Z,94311.59
2023-10-26T06:32:51.098Z,94310.16
2023-10-26T06:35:20.926Z,94311.63
2023-10-26T06:37:49.773Z,94312.63
2023-10-26T06:40:17.926Z,94304.53
2023-10-26T06:42:45.836Z,94301.84
2023-10-26T06:45:13.912Z,94306.84
2023-10-26T06:47:41.897Z,94316.78
2023-10-26T06:50:10.707Z,94316.72
2023-10-26T06:52:40.003Z,94313.94
2023-10-26T06:55:15.704Z,94309.41
2023-10-26T06:57:47.727Z,94305.72
2023-10-26T07:00:17.266Z,94302.16
2023-10-26T07:02:45.371Z,94311.91
2023-10-26T07:05:13.611Z,94308.94
2023-10-26T07:07:42.955Z,94317.31
2023-10-26T07:10:16.136Z,94310.03
2023-10-26T07:12:44.487Z,94314.06
2023-10-26T07:15:13.275Z,94311.28
2023-10-26T07:17:41.323Z,94318.38
2023-10-26T07:20:10.264Z,94314.69
2023-10-26T07:22:39.810Z,94319.00
2023-10-26T07:25:10.094Z,94319.13
2023-10-26T07:27:38.566Z,94315.38
2023-10-26T07:30:08.125Z,94318.16
2023-10-26T07:32:36.133Z,94314.59
2023-10-26T07:35:04.258Z,94326.13
2023-10-26T07:37:32.295Z,94326.91
2023-10-26T07:40:28.756Z,94320.47
2023-10-26T07:42:49.972Z,94327.56
2023-10-26T07:45:18.075Z,94331.44
2023-10-26T07:47:46.126Z,94326.88
2023-10-26T07:50:18.024Z,94319.47
2023-10-26T07:52:45.987Z,94331.97
2023-10-26T07:55:14.177Z,94323.44
2023-10-26T07:57:43.034Z,94322.59
2023-10-26T08:00:13.750Z,94311.38
2023-10-26T08:02:42.466Z,94302.53
2023-10-26T08:05:13.207Z,94310.72
2023-10-26T08:07:41.239Z,94309.19
2023-10-26T08:10:11.345Z,94306.94
2023-10-26T08:12:39.316Z,94313.06
2023-10-26T08:16:09.253Z,94315.59
2023-10-26T08:17:58.019Z,94303.75
2023-10-26T08:20:26.190Z,94315.59
2023-10-26T08:22:54.149Z,94311.28
2023-10-26T08:25:24.949Z,94311.06
2023-10-26T08:27:54.173Z,94301.75
2023-10-26T08:30:22.117Z,94304.16
2023-10-26T08:32:55.040Z,94310.94
2023-10-26T08:35:24.843Z,94309.06
2023-10-26T08:37:52.964Z,94307.94
2023-10-26T08:40:21.605Z,94306.63
2023-10-26T08:42:50.129Z,94298.31
2023-10-26T08:45:22.995Z,94296.31
2023-10-26T08:47:51.767Z,94293.41
2023-10-26T08:50:22.911Z,94294.53
2023-10-26T08:52:52.933Z,94292.59
2023-10-26T08:55:21.430Z,94289.03
2023-10-26T08:57:51.566Z,94294.81
2023-10-26T09:00:20.898Z,94292.72
2023-10-26T09:02:51.100Z,94297.06
2023-10-26T09:05:19.687Z,94299.22
2023-10-26T09:07:47.750Z,94310.25
2023-10-26T09:10:30.321Z,94299.25
2023-10-26T09:13:02.807Z,94296.09
2023-10-26T09:15:30.857Z,94301.47
2023-10-26T09:18:01.428Z,94304.63
2023-10-26T09:20:30.387Z,94301.91
2023-10-26T09:23:00.481Z,94325.63
2023-10-26T09:25:30.087Z,94325.97
2023-10-26T09:28:04.982Z,94311.31
2023-10-26T09:30:34.041Z,94312.66
2023-10-26T09:33:02.261Z,94322.44
2023-10-26T09:35:31.851Z,94319.31
2023-10-26T09:38:00.683Z,94313.44
2023-10-26T09:40:30.427Z,94320.66
2023-10-26T09:42:58.791Z,94325.19
2023-10-26T09:45:28.200Z,94324.00
2023-10-26T09:47:57.305Z,94328.94
2023-10-26T09:50:26.612Z,94335.34
2023-10-26T09:52:56.921Z,94334.34
2023-10-26T09:55:25.516Z,94333.66
2023-10-26T09:58:01.786Z,94338.00
2023-10-26T10:00:34.201Z,94332.00
2023-10-26T10:03:12.186Z,94341.91
2023-10-26T10:05:41.841Z,94354.63
2023-10-26T10:08:11.335Z,94347.22
2023-10-26T10:11:19.228Z,94346.31
2023-10-26T10:13:48.785Z,94337.56
2023-10-26T10:16:56.576Z,94335.00
2023-10-26T10:19:27.145Z,94341.72
2023-10-26T10:21:55.172Z,94330.88
2023-10-26T10:24:51.381Z,94329.31
2023-10-26T10:27:19.390Z,94315.78
2023-10-26T10:29:48.767Z,94301.00
2023-10-26T10:32:51.642Z,94302.69
2023-10-26T10:35:44.477Z,94300.44
2023-10-26T10:38:20.434Z,94302.22
2023-10-26T10:41:10.088Z,94303.44
2023-10-26T10:43:41.801Z,94316.50
2023-10-26T10:46:21.241Z,94314.94
2023-10-26T10:49:00.212Z,94312.66
2023-10-26T10:51:36.112Z,94307.53
2023-10-26T10:54:14.200Z,94307.41
2023-10-26T10:56:54.550Z,94318.84
2023-10-26T10:59:24.724Z,94311.03
2023-10-26T11:02:09.441Z,94304.94
2023-10-26T11:04:57.346Z,94307.22
2023-10-26T11:07:32.319Z,94308.69
2023-10-26T11:10:01.495Z,94306.22
2023-10-26T11:12:30.267Z,94302.81
2023-10-26T11:14:58.470Z,94311.06
2023-10-26T11:17:29.831Z,94309.19
2023-10-26T11:19:58.259Z,94302.53
2023-10-26T11:22:26.574Z,94296.75
2023-10-26T11:24:54.561Z,94301.78
2023-10-26T11:27:24.417Z,94292.22
2023-10-26T11:30:05.087Z,94297.91
2023-10-26T11:32:34.580Z,94306.69
2023-10-26T11:35:10.677Z,94292.88
2023-10-26T11:37:41.448Z,94277.44
2023-10-26T11:40:11.415Z,94269.19
2023-10-26T11:42:47.190Z,94267.78
2023-10-26T11:45:16.468Z,94260.81
2023-10-26T11:47:51.632Z,94281.44
2023-10-26T11:50:21.727Z,94281.50
2023-10-26T11:52:50.600Z,94269.66
2023-10-26T11:55:19.952Z,94262.84
2023-10-26T11:57:47.938Z,94251.81
2023-10-26T12:00:17.393Z,94242.06
2023-10-26T12:02:45.521Z,94249.13
2023-10-26T12:05:16.944Z,94252.59
2023-10-26T12:07:45.603Z,94260.53
2023-10-26T12:10:14.747Z,94264.91
2023-10-26T12:12:43.366Z,94260.03
2023-10-26T12:15:12.522Z,94265.78
2023-10-26T12:17:40.576Z,94262.78
2023-10-26T12:20:10.365Z,94267.19
2023-10-26T12:22:40.760Z,94258.47
2023-10-26T12:25:09.600Z,94254.53
2023-10-26T12:28:10.991Z,94263.69
2023-10-26T12:30:25.409Z,94257.56
2023-10-26T12:32:53.458Z,94255.31
2023-10-26T12:35:21.716Z,94257.06
2023-10-26T12:37:51.136Z,94249.03
2023-10-26T12:40:21.383Z,94247.56
2023-10-26T12:42:49.593Z,94244.47
2023-10-26T12:45:18.708Z,94244.50
2023-10-26T12:47:47.125Z,94241.44
2023-10-26T12:50:15.065Z,94239.78
2023-10-26T12:52:45.884Z,94242.88
2023-10-26T12:55:15.234Z,94243.75
2023-10-26T12:57:44.667Z,94237.09
2023-10-26T13:00:13.597Z,94243.56
2023-10-26T13:02:41.538Z,94247.81
2023-10-26T13:05:09.514Z,94260.63
2023-10-26T13:07:37.543Z,94251.38
2023-10-26T13:10:06.291Z,94243.16
2023-10-26T13:12:35.652Z,94244.25
2023-10-26T13:15:04.985Z,94235.69
2023-10-26T13:17:33.605Z,94246.84
2023-10-26T13:20:01.974Z,94230.50
2023-10-26T13:22:29.941Z,94223.13
2023-10-26T13:24:58.027Z,94230.94
2023-10-26T13:27:26.905Z,94220.25
2023-10-26T13:29:56.272Z,94210.44
2023-10-26T13:32:24.637Z,94220.84
2023-10-26T13:34:52.606Z,94222.44
2023-10-26T13:37:20.520Z,94216.00
2023-10-26T13:39:48.501Z,94216.53
2023-10-26T13:42:16.456Z,94216.16
2023-10-26T13:44:45.044Z,94222.84
2023-10-26T13:47:14.372Z,94225.13
2023-10-26T13:49:42.605Z,94221.47
2023-10-26T13:52:10.753Z,94218.06
2023-10-26T13:54:38.766Z,94217.06
2023-10-26T13:57:07.377Z,94220.97
2023-10-26T13:59:38.713Z,94210.75
2023-10-26T14:02:06.840Z,94218.66
2023-10-26T14:04:37.518Z,94219.44
2023-10-26T14:07:10.285Z,94216.81
2023-10-26T14:09:38.419Z,94230.72
2023-10-26T14:12:06.839Z,94237.41
2023-10-26T14:14:36.811Z,94234.00
2023-10-26T14:17:05.850Z,94238.19
2023-10-26T14:19:33.949Z,94235.38
2023-10-26T14:22:04.767Z,94239.41
2023-10-26T14:24:32.897Z,94228.72
2023-10-26T14:27:00.875Z,94222.56
2023-10-26T14:29:28.855Z,94213.28
2023-10-26T14:31:56.791Z,94210.34
2023-10-26T14:34:24.872Z,94212.38
2023-10-26T14:36:52.859Z,94205.84
2023-10-26T14:39:22.285Z,94200.63
2023-10-26T14:41:50.323Z,94202.44
2023-10-26T14:44:18.380Z,94190.56
2023-10-26T14:46:46.376Z,94191.63
2023-10-26T14:49:14.328Z,94188.84
2023-10-26T14:51:45.620Z,94186.25
2023-10-26T14:54:13.715Z,94184.81
2023-10-26T14:56:42.979Z,94179.72
2023-10-26T14:59:12.706Z,94176.19
2023-10-26T15:01:40.667Z,94173.84
2023-10-26T15:04:11.703Z,94174.94
2023-10-26T15:06:39.772Z,94171.09
2023-10-26T15:09:08.227Z,94173.44
2023-10-26T15:11:55.238Z,94171.56
2023-10-26T15:14:26.944Z,94156.38
2023-10-26T15:16:55.688Z,94153.59
2023-10-26T15:19:23.834Z,94158.16
2023-10-26T15:21:52.018Z,94156.28
2023-10-26T15:24:19.983Z,94149.19
2023-10-26T15:26:47.949Z,94135.28
2023-10-26T15:29:15.867Z,94131.78
2023-10-26T15:31:48.356Z,94133.53
2023-10-26T15:34:16.767Z,94135.53
2023-10-26T15:36:45.422Z,94139.53
2023-10-26T15:39:14.554Z,94137.88
2023-10-26T15:41:43.918Z,94147.06
2023-10-26T15:44:12.008Z,94141.47
2023-10-26T15:46:41.734Z,94148.66
2023-10-26T15:49:33.334Z,94143.91
2023-10-26T15:51:59.785Z,94136.34
2023-10-26T15:54:27.801Z,94141.97
2023-10-26T15:56:55.759Z,94139.34
2023-10-26T15:59:25.477Z,94144.84
2023-10-26T16:01:53.691Z,94146.09
2023-10-26T16:04:23.107Z,94153.25
2023-10-26T16:06:51.873Z,94159.16
2023-10-26T16:09:19.923Z,94156.38
2023-10-26T16:11:47.945Z,94165.69
2023-10-26T16:14:16.557Z,94169.09
2023-10-26T16:16:44.574Z,94163.34
2023-10-26T16:19:12.535Z,94176.47
2023-10-26T16:21:41.939Z,94145.84
2023-10-26T16:24:10.998Z,94156.66
2023-10-26T16:26:39.100Z,94156.88
2023-10-26T16:29:07.016Z,94143.25
2023-10-26T16:31:35.089Z,94145.88
2023-10-26T16:34:03.224Z,94145.88
2023-10-26T16:36:31.240Z,94142.97
2023-10-26T16:39:00.533Z,94137.38
2023-10-26T16:41:28.504Z,94134.78
2023-10-26T16:43:56.418Z,94140.06
2023-10-26T16:46:24.470Z,94137.28
2023-10-26T16:48:52.485Z,94148.34
2023-10-26T16:51:20.462Z,94152.50
2023-10-26T16:53:48.378Z,94139.88
2023-10-26T16:56:17.722Z,94137.38
2023-10-26T16:58:45.693Z,94142.16
2023-10-26T17:01:13.789Z,94130.75
2023-10-26T17:03:41.874Z,94128.75
2023-10-26T17:06:11.598Z,94135.69
2023-10-26T17:08:39.614Z,94123.31
2023-10-26T17:11:07.704Z,94139.97
2023-10-26T17:13:36.996Z,94127.03
2023-10-26T17:16:05.369Z,94121.28
2023-10-26T17:18:34.519Z,94142.72
2023-10-26T17:21:02.700Z,94135.81
2023-10-26T17:23:31.016Z,94135.94
2023-10-26T17:25:58.967Z,94140.91
2023-10-26T17:28:27.008Z,94138.44
2023-10-26T17:31:06.299Z,94155.13
2023-10-26T17:33:34.291Z,94153.88
2023-10-26T17:36:02.296Z,94153.25
2023-10-26T17:38:30.216Z,94149.81
2023-10-26T17:41:08.716Z,94147.38
2023-10-26T17:43:36.983Z,94157.19
2023-10-26T17:46:06.581Z,94164.31
2023-10-26T17:48:35.044Z,94157.84
2023-10-26T17:51:07.102Z,94157.34
2023-10-26T17:53:35.664Z,94155.06
2023-10-26T17:56:05.090Z,94164.00
2023-10-26T17:58:33.055Z,94162.44
2023-10-26T18:01:06.836Z,94165.69
2023-10-26T18:03:36.222Z,94166.41
2023-10-26T18:06:05.156Z,94169.22
2023-10-26T18:08:33.164Z,94169.97
2023-10-26T18:11:01.426Z,94169.84
2023-10-26T18:13:30.745Z,94162.53
2023-10-26T18:16:04.035Z,94165.56
2023-10-26T18:18:34.084Z,94161.44
2023-10-26T18:21:03.675Z,94165.72
2023-10-26T18:23:33.438Z,94168.28
2023-10-26T18:26:02.249Z,94170.41
2023-10-26T18:28:30.213Z,94174.59
2023-10-26T18:31:02.701Z,94158.38
2023-10-26T18:33:31.656Z,94162.53
2023-10-26T18:36:05.882Z,94157.50
2023-10-26T18:38:35.237Z,94163.53
2023-10-26T18:41:04.977Z,94162.38
2023-10-26T18:43:34.212Z,94165.03
2023-10-26T18:46:04.067Z,94174.81
2023-10-26T18:48:34.476Z,94171.94
2023-10-26T18:51:04.538Z,94165.56
2023-10-26T18:53:33.197Z,94172.78
2023-10-26T18:56:01.863Z,94173.09
2023-10-26T18:58:31.048Z,94169.22
2023-10-26T19:00:59.056Z,94180.59
2023-10-26T19:03:27.136Z,94172.03
2023-10-26T19:05:55.057Z,94173.78
2023-10-26T19:08:25.265Z,94176.34
2023-10-26T19:10:53.215Z,94175.91
2023-10-26T19:13:21.294Z,94177.63
2023-10-26T19:15:49.690Z,94170.72
2023-10-26T19:18:17.705Z,94167.63
2023-10-26T19:20:45.700Z,94167.72
2023-10-26T19:23:13.980Z,94179.09
2023-10-26T19:25:43.439Z,94173.13
2023-10-26T19:28:11.394Z,94169.44
2023-10-26T19:30:39.406Z,94169.88
2023-10-26T19:33:07.487Z,94176.50
2023-10-26T19:35:35.521Z,94165.75
2023-10-26T19:38:03.659Z,94170.94
2023-10-26T19:40:31.702Z,94167.78
2023-10-26T19:43:01.084Z,94158.53
2023-10-26T19:45:29.092Z,94163.78
2023-10-26T19:47:58.987Z,94154.63
2023-10-26T19:50:27.558Z,94150.59
2023-10-26T19:52:56.230Z,94155.91
2023-10-26T19:55:24.166Z,94149.13
2023-10-26T19:57:52.087Z,94152.09
2023-10-26T20:00:21.770Z,94154.38
2023-10-26T20:02:50.316Z,94150.50
2023-10-26T20:05:18.433Z,94145.97
2023-10-26T20:07:46.447Z,94142.31
2023-10-26T20:10:14.390Z,94129.72
2023-10-26T20:12:42.444Z,94132.72
2023-10-26T20:15:12.135Z,94135.88
2023-10-26T20:17:41.487Z,94135.78
2023-10-26T20:20:10.978Z,94138.88
2023-10-26T20:22:38.944Z,94131.53
2023-10-26T20:25:07.753Z,94125.78
2023-10-26T20:27:35.844Z,94130.16
2023-10-26T20:30:06.372Z,94130.78
2023-10-26T20:32:35.680Z,94132.69
2023-10-26T20:35:05.803Z,94144.75
2023-10-26T20:37:35.088Z,94141.03
2023-10-26T20:40:06.061Z,94136.78
2023-10-26T20:42:34.124Z,94130.28
2023-10-26T20:45:02.089Z,94120.72
2023-10-26T20:47:30.036Z,94113.13
2023-10-26T20:49:58.008Z,94105.16
2023-10-26T20:52:28.262Z,94117.41
2023-10-26T20:54:56.315Z,94108.66
2023-10-26T20:57:24.419Z,94102.91
2023-10-26T20:59:52.402Z,94100.88
2023-10-26T21:02:20.370Z,94104.63
2023-10-26T21:04:48.295Z,94098.53
2023-10-26T21:07:16.599Z,94096.09
2023-10-26T21:09:46.130Z,94082.69
2023-10-26T21:12:14.204Z,94078.00
2023-10-26T21:14:42.178Z,94076.63
2023-10-26T21:17:10.144Z,94071.88
2023-10-26T21:19:38.091Z,94068.63
2023-10-26T21:22:06.138Z,94071.47
2023-10-26T21:24:34.033Z,94059.28
2023-10-26T21:27:03.361Z,94057.31
2023-10-26T21:29:31.589Z,94056.50
2023-10-26T21:31:59.639Z,94059.59
2023-10-26T21:34:27.673Z,94053.19
2023-10-26T21:36:55.670Z,94052.97
2023-10-26T21:39:23.700Z,94050.66
2023-10-26T21:41:51.665Z,94047.66
2023-10-26T21:44:21.273Z,94048.28
2023-10-26T21:46:51.510Z,94036.00
2023-10-26T21:49:19.534Z,94035.41
2023-10-26T21:51:47.990Z,94030.53
2023-10-26T21:54:15.934Z,94026.53
2023-10-26T21:56:43.852Z,94023.78
2023-10-26T21:59:11.834Z,94021.44
2023-10-26T22:01:41.277Z,94019.94
2023-10-26T22:04:21.594Z,94018.28
2023-10-26T22:06:50.538Z,94018.75
2023-10-26T22:09:22.115Z,94015.59
2023-10-26T22:11:50.431Z,94008.25
2023-10-26T22:14:18.849Z,94005.09
2023-10-26T22:16:48.191Z,93997.19
2023-10-26T22:19:16.248Z,93991.94
2023-10-26T22:21:44.236Z,93993.72
2023-10-26T22:24:12.428Z,93993.66
2023-10-26T22:26:40.358Z,93993.75
2023-10-26T22:29:12.939Z,93990.09
2023-10-26T22:31:49.273Z,93979.38
2023-10-26T22:34:17.252Z,93979.94
2023-10-26T22:36:45.253Z,93973.44
2023-10-26T22:39:13.143Z,93982.91
2023-10-26T22:41:41.671Z,93980.41
2023-10-26T22:44:10.533Z,93976.34
2023-10-26T22:46:38.442Z,93973.22
2023-10-26T22:49:07.770Z,93973.22
2023-10-26T22:51:35.886Z,93962.44
2023-10-26T22:54:03.795Z,93969.09
2023-10-26T22:56:31.738Z,93964.81
2023-10-26T22:58:59.690Z,93963.19
2023-10-26T23:01:27.667Z,93952.88
2023-10-26T23:03:55.679Z,93949.31
2023-10-26T23:06:29.220Z,93956.03
2023-10-26T23:08:57.255Z,93947.63
2023-10-26T23:11:25.198Z,93945.59
2023-10-26T23:13:53.171Z,93950.94
2023-10-26T23:16:21.274Z,93944.59
2023-10-26T23:18:49.369Z,93944.03
2023-10-26T23:21:17.376Z,93943.63
2023-10-26T23:23:47.269Z,93945.88
2023-10-26T23:26:15.265Z,93933.50
2023-10-26T23:28:43.193Z,93932.56
2023-10-26T23:31:11.682Z,93926.25
2023-10-26T23:33:40.556Z,93929.72
2023-10-26T23:36:11.018Z,93919.91
2023-10-26T23:38:39.218Z,93920.91
2023-10-26T23:41:08.537Z,93925.16
2023-10-26T23:43:36.574Z,93924.63
2023-10-26T23:46:04.798Z,93921.81
2023-10-26T23:48:32.748Z,93926.16
2023-10-26T23:51:00.673Z,93922.19
2023-10-26T23:53:28.609Z,93922.38
2023-10-26T23:55:56.601Z,93921.47
2023-10-26T23:58:26.216Z,93926.00
